Time;durP1;ratioP1;P1;durP2;ratioP2;P2;SDS_P1;SDS_P2;PMS_P1;PMS_P2;Temp;Humidity;BMP_temperature;BMP_pressure;BME280_temperature;BME280_humidity;BME280_pressure;Samples;Min_cycle;Max_cycle;Signal;HPM_P1;HPM_P2
2022/11/05 00:09:28;;;;;;;8.40;3.13;;;;;;;13.86;100.00;98210.47;6025831;23;20025;-92
2022/11/05 00:16:55;;;;;;;11.40;2.72;;;;;;;13.88;100.00;98182.47;6117187;23;20356;-91
2022/11/05 00:19:21;;;;;;;8.95;2.95;;;;;;;13.63;100.00;98178.84;6115638;23;20014;-92
2022/11/05 00:27:14;;;;;;;10.43;2.55;;;;;;;13.71;100.00;98180.34;6116499;23;20363;-92
2022/11/05 00:29:39;;;;;;;8.95;2.78;;;;;;;14.06;100.00;98181.03;6090556;23;20017;-92
2022/11/05 00:32:05;;;;;;;13.25;2.90;;;;;;;14.06;100.00;98170.53;6117919;23;20014;-91
2022/11/05 00:34:31;;;;;;;10.98;3.05;;;;;;;13.67;100.00;98169.13;6092208;23;20475;-92
2022/11/05 00:36:56;;;;;;;9.55;2.60;;;;;;;14.08;100.00;98168.72;6091214;23;20017;-91
2022/11/05 00:39:22;;;;;;;10.75;2.17;;;;;;;13.15;100.00;98179.34;6091628;23;20459;-91
2022/11/05 00:44:58;;;;;;;7.28;2.50;;;;;;;13.63;100.00;98172.75;6090888;23;20013;-92
2022/11/05 00:50:00;;;;;;;10.70;2.35;;;;;;;13.53;100.00;98166.06;6115238;23;20032;-92
2022/11/05 00:55:10;;;;;;;7.57;1.83;;;;;;;13.44;100.00;98156.72;6119204;23;20057;-92
2022/11/05 00:57:35;;;;;;;8.93;2.17;;;;;;;13.89;100.00;98147.47;6091675;23;20235;-92
2022/11/05 01:00:00;;;;;;;8.65;2.20;;;;;;;14.03;100.00;98145.28;6090141;23;20436;-92
2022/11/05 01:02:26;;;;;;;7.63;1.75;;;;;;;13.48;100.00;98140.84;6089090;23;20032;-92
2022/11/05 01:04:51;;;;;;;7.07;1.67;;;;;;;13.60;100.00;98146.66;6089893;23;20009;-91
2022/11/05 01:07:17;;;;;;;6.30;1.90;;;;;;;14.18;100.00;98146.50;6116261;23;20010;-92
2022/11/05 01:09:42;;;;;;;8.57;2.03;;;;;;;14.34;100.00;98150.31;6117900;23;20467;-93
2022/11/05 01:12:08;;;;;;;8.10;1.80;;;;;;;14.21;100.00;98143.81;6117400;23;20080;-92
2022/11/05 01:14:33;;;;;;;5.80;1.50;;;;;;;14.51;100.00;98148.91;6117350;23;20046;-92
2022/11/05 01:16:58;;;;;;;7.00;1.52;;;;;;;14.46;100.00;98151.69;6092291;23;20010;-93
2022/11/05 01:19:24;;;;;;;7.22;1.63;;;;;;;15.12;100.00;98148.47;6090642;23;20025;-92
2022/11/05 01:21:49;;;;;;;10.35;1.73;;;;;;;14.39;100.00;98154.56;6117291;23;20022;-92
2022/11/05 01:24:15;;;;;;;7.28;1.98;;;;;;;14.64;100.00;98154.59;6118193;23;20454;-92
2022/11/05 01:26:40;;;;;;;7.28;1.60;;;;;;;13.88;100.00;98159.72;6090903;23;20074;-91
2022/11/05 01:29:05;;;;;;;7.63;1.88;;;;;;;13.65;100.00;98161.31;6090989;23;20041;-92
2022/11/05 01:31:31;;;;;;;6.93;1.60;;;;;;;15.13;100.00;98138.84;6090516;23;20037;-91
2022/11/05 01:33:59;;;;;;;8.32;1.75;;;;;;;14.54;100.00;98142.69;6115508;23;20089;-91
2022/11/05 01:36:24;;;;;;;9.10;2.03;;;;;;;14.97;100.00;98142.03;6091236;23;20382;-91
2022/11/05 01:38:50;;;;;;;8.55;1.85;;;;;;;15.18;100.00;98139.50;6088660;23;20006;-91
2022/11/05 01:41:15;;;;;;;8.60;1.98;;;;;;;15.41;100.00;98137.81;6114736;23;20014;-91
2022/11/05 01:43:50;;;;;;;8.55;1.90;;;;;;;14.81;100.00;98146.16;6112164;23;20017;-92
2022/11/05 01:46:24;;;;;;;9.20;2.10;;;;;;;14.71;100.00;98142.13;6087463;23;20467;-92
2022/11/05 01:48:52;;;;;;;9.15;1.90;;;;;;;15.47;100.00;98134.94;6087613;23;20013;-92
2022/11/05 01:51:23;;;;;;;7.25;1.90;;;;;;;14.30;100.00;98140.84;6086510;23;20068;-91
2022/11/05 01:53:59;;;;;;;7.43;1.80;;;;;;;15.19;100.00;98144.72;6087817;23;20009;-90
2022/11/05 01:56:30;;;;;;;8.88;1.70;;;;;;;14.93;100.00;98140.41;6114171;23;20016;-90
2022/11/05 01:59:02;;;;;;;9.57;2.08;;;;;;;14.89;100.00;98148.47;6088039;23;20022;-91
2022/11/05 02:01:28;;;;;;;7.72;1.80;;;;;;;15.29;100.00;98149.63;6089469;23;20395;-91
2022/11/05 02:03:58;;;;;;;6.47;1.40;;;;;;;15.13;100.00;98152.00;6087120;23;20021;-91
2022/11/05 02:06:26;;;;;;;7.18;1.70;;;;;;;15.01;100.00;98148.88;6090510;23;20022;-92
2022/11/05 02:08:55;;;;;;;9.50;1.90;;;;;;;15.37;100.00;98152.81;6116919;23;20046;-91
2022/11/05 02:11:20;;;;;;;8.07;1.50;;;;;;;15.61;100.00;98144.91;6118174;23;20010;-91
2022/11/05 02:13:47;;;;;;;8.30;1.63;;;;;;;15.06;100.00;98143.47;6089536;23;20025;-91
2022/11/05 02:16:52;;;;;;;7.88;1.73;;;;;;;14.08;100.00;98151.19;6090993;23;20561;-92
2022/11/05 02:19:49;;;;;;;8.57;1.90;;;;;;;14.19;100.00;98150.84;6090203;23;20022;-92
2022/11/05 02:22:26;;;;;;;8.25;1.63;;;;;;;13.94;100.00;98146.41;6089955;23;20109;-92
2022/11/05 02:24:59;;;;;;;6.85;1.75;;;;;;;14.24;100.00;98138.44;6090801;23;20086;-91
2022/11/05 02:27:43;;;;;;;6.10;1.57;;;;;;;14.25;100.00;98145.41;6118617;23;20380;-93
2022/11/05 02:30:22;;;;;;;6.82;1.70;;;;;;;14.30;100.00;98138.22;6094240;23;20022;-93
2022/11/05 02:32:51;;;;;;;7.40;1.92;;;;;;;14.00;100.00;98146.22;6091555;23;20033;-92
2022/11/05 02:35:40;;;;;;;7.57;2.00;;;;;;;13.54;100.00;98142.47;6089659;23;20018;-92
2022/11/05 02:38:11;;;;;;;7.13;1.70;;;;;;;13.25;100.00;98146.78;6091428;23;20018;-92
2022/11/05 02:41:15;;;;;;;8.48;1.65;;;;;;;14.21;100.00;98143.81;6091267;23;20020;-92
2022/11/05 02:43:51;;;;;;;7.18;1.60;;;;;;;13.73;100.00;98134.00;6092039;23;20013;-92
2022/11/05 02:46:38;;;;;;;6.75;1.90;;;;;;;14.14;100.00;98127.41;6091473;23;20046;-92
2022/11/05 02:49:20;;;;;;;7.40;1.92;;;;;;;13.40;100.00;98128.91;6090625;23;20072;-92
2022/11/05 02:51:59;;;;;;;6.63;1.63;;;;;;;13.23;100.00;98126.78;6090448;23;20100;-91
2022/11/05 02:54:32;;;;;;;6.85;1.60;;;;;;;13.70;100.00;98124.47;6089422;23;20217;-92
2022/11/05 02:56:59;;;;;;;10.50;2.15;;;;;;;13.20;100.00;98125.09;6089850;23;20018;-92
2022/11/05 02:59:25;;;;;;;9.15;1.80;;;;;;;13.68;100.00;98128.94;6087654;23;20010;-90
2022/11/05 03:01:52;;;;;;;7.57;1.73;;;;;;;13.73;100.00;98129.63;6076895;23;20041;-89
2022/11/05 03:04:22;;;;;;;7.53;1.92;;;;;;;13.71;100.00;98127.94;6103732;23;20026;-89
2022/11/05 03:07:18;;;;;;;10.23;1.73;;;;;;;13.58;100.00;98130.94;6088528;23;20014;-90
2022/11/05 03:10:09;;;;;;;6.85;1.85;;;;;;;13.41;100.00;98131.47;6090961;23;20029;-89
2022/11/05 03:12:49;;;;;;;8.43;2.47;;;;;;;12.89;100.00;98136.47;6117116;23;20006;-89
2022/11/05 03:15:39;;;;;;;9.00;2.35;;;;;;;13.34;100.00;98121.22;6090782;23;20040;-89
2022/11/05 03:18:30;;;;;;;7.95;2.33;;;;;;;13.71;100.00;98117.47;6090749;23;20009;-89
2022/11/05 03:21:03;;;;;;;7.00;2.05;;;;;;;14.34;100.00;98108.34;6091597;23;20097;-89
2022/11/05 03:23:57;;;;;;;7.50;2.20;;;;;;;14.23;100.00;98099.16;6115655;23;20010;-89
2022/11/05 03:26:57;;;;;;;7.35;2.45;;;;;;;14.25;100.00;98103.44;6090777;23;20010;-89
2022/11/05 03:29:27;;;;;;;8.88;2.50;;;;;;;14.61;100.00;98087.31;6080224;23;20352;-89
2022/11/05 03:31:56;;;;;;;7.13;2.05;;;;;;;14.34;100.00;98086.53;6089422;23;20029;-90
2022/11/05 03:34:31;;;;;;;9.13;2.85;;;;;;;15.48;100.00;98065.69;6090961;23;20040;-89
2022/11/05 03:36:57;;;;;;;7.85;2.67;;;;;;;14.22;100.00;98090.41;6089051;23;20028;-89
2022/11/05 03:39:34;;;;;;;9.40;2.95;;;;;;;13.56;100.00;98085.63;6086698;23;20240;-89
2022/11/05 03:42:05;;;;;;;10.35;2.75;;;;;;;13.43;100.00;98089.53;6087806;23;20352;-89
2022/11/05 03:44:34;;;;;;;9.93;2.97;;;;;;;13.76;100.00;98084.97;6114244;23;20140;-89
2022/11/05 03:47:05;;;;;;;13.65;3.35;;;;;;;12.97;100.00;98090.00;6114184;23;20395;-88
2022/11/05 03:49:39;;;;;;;11.00;3.72;;;;;;;13.80;100.00;98091.81;6087291;23;20446;-89
2022/11/05 03:52:13;;;;;;;9.75;3.20;;;;;;;14.03;100.00;98089.34;6086725;23;20014;-89
2022/11/05 03:54:39;;;;;;;14.90;3.38;;;;;;;14.12;100.00;98089.88;6086994;23;20493;-89
2022/11/05 03:57:09;;;;;;;11.05;3.45;;;;;;;15.04;100.00;98078.78;6112289;23;20097;-89
2022/11/05 03:59:41;;;;;;;9.27;3.30;;;;;;;15.27;100.00;98068.25;6087545;23;20013;-89
2022/11/05 04:02:08;;;;;;;9.98;2.97;;;;;;;14.61;100.00;98068.09;6086561;23;20033;-90
2022/11/05 04:04:34;;;;;;;13.15;3.38;;;;;;;13.96;100.00;98073.00;6089617;23;20014;-89
2022/11/05 04:15:11;;;;;;;9.27;2.80;;;;;;;14.30;100.00;98074.44;6117791;23;20033;-89
2022/11/05 04:17:36;;;;;;;9.73;3.20;;;;;;;13.26;100.00;98080.41;6090736;23;20010;-89
2022/11/05 04:25:30;;;;;;;9.35;3.10;;;;;;;13.89;100.00;98064.47;6117985;23;20096;-90
2022/11/05 04:27:59;;;;;;;12.70;3.17;;;;;;;13.21;100.00;98056.13;6116126;23;20463;-89
2022/11/05 04:30:25;;;;;;;10.15;2.83;;;;;;;13.35;100.00;98055.72;6091870;23;20021;-89
2022/11/05 04:33:11;;;;;;;8.38;2.47;;;;;;;13.69;100.00;98054.63;6092033;23;20013;-89
2022/11/05 04:35:39;;;;;;;8.63;2.60;;;;;;;14.48;100.00;98058.03;6090385;23;20044;-88
2022/11/05 04:38:10;;;;;;;10.25;2.38;;;;;;;13.98;100.00;98055.44;6117713;23;20687;-89
2022/11/05 04:40:36;;;;;;;10.60;3.17;;;;;;;14.47;100.00;98050.22;6091009;23;20168;-88
2022/11/05 04:43:02;;;;;;;10.38;2.50;;;;;;;14.20;100.00;98055.53;6092049;23;20014;-89
2022/11/05 04:45:30;;;;;;;8.85;2.70;;;;;;;13.50;100.00;98051.78;6090690;23;20092;-89
2022/11/05 04:47:56;;;;;;;9.23;2.40;;;;;;;13.80;100.00;98057.75;6091366;23;20078;-89
2022/11/05 04:50:22;;;;;;;8.25;2.15;;;;;;;14.79;100.00;98045.59;6092015;23;20548;-89
2022/11/05 04:52:48;;;;;;;10.45;2.67;;;;;;;13.85;100.00;98057.63;6090849;23;20012;-89
2022/11/05 04:55:13;;;;;;;8.90;2.33;;;;;;;14.28;100.00;98056.13;6116688;23;20014;-89
2022/11/05 04:57:39;;;;;;;10.40;2.70;;;;;;;14.12;100.00;98065.44;6088412;23;20010;-89
2022/11/05 05:00:06;;;;;;;8.45;3.08;;;;;;;14.14;100.00;98061.84;6089318;23;20483;-90
2022/11/05 05:02:31;;;;;;;11.63;2.95;;;;;;;14.03;100.00;98055.25;6090229;23;20088;-88
2022/11/05 05:04:57;;;;;;;9.95;2.65;;;;;;;13.62;100.00;98061.81;6090112;23;20021;-89
2022/11/05 05:07:23;;;;;;;8.02;2.60;;;;;;;14.90;100.00;98053.91;6090573;23;20427;-89
2022/11/05 05:09:48;;;;;;;11.18;3.25;;;;;;;14.65;100.00;98044.31;6089845;23;20770;-89
2022/11/05 05:12:13;;;;;;;11.45;2.53;;;;;;;14.80;100.00;98047.28;6090216;23;20017;-88
2022/11/05 05:14:39;;;;;;;7.78;2.20;;;;;;;15.53;100.00;98037.44;6089738;23;20013;-88
2022/11/05 05:17:04;;;;;;;9.10;2.40;;;;;;;15.46;100.00;98041.22;6090918;23;20009;-89
2022/11/05 05:21:37;;;;;;;7.93;2.50;;;;;;;15.81;100.00;98031.06;6116570;23;20013;-89
2022/11/05 05:22:15;;;;;;;6.65;2.10;;;;;;;15.11;100.00;98033.00;6116627;23;20026;-88
2022/11/05 05:24:40;;;;;;;9.25;2.58;;;;;;;15.00;100.00;98030.78;6090643;23;20017;-89
2022/11/05 05:27:06;;;;;;;11.52;2.30;;;;;;;14.44;100.00;98032.81;6091061;23;20010;-89
2022/11/05 05:29:31;;;;;;;12.63;2.38;;;;;;;14.60;100.00;98034.88;6090852;23;20022;-89
2022/11/05 05:31:56;;;;;;;8.57;2.65;;;;;;;14.45;100.00;98036.31;6117486;23;20064;-88
2022/11/05 05:34:23;;;;;;;9.15;2.45;;;;;;;13.53;100.00;98035.06;6116926;23;20057;-88
2022/11/05 05:36:48;;;;;;;9.98;2.70;;;;;;;13.20;100.00;98035.22;6117686;23;20040;-89
2022/11/05 05:39:13;;;;;;;7.72;2.20;;;;;;;13.88;100.00;98031.28;6091971;23;20014;-89
2022/11/05 05:41:39;;;;;;;12.85;2.65;;;;;;;13.48;100.00;98035.22;6090914;23;20024;-89
2022/11/05 05:44:05;;;;;;;5.95;1.80;;;;;;;13.53;100.00;98038.56;6118492;23;20010;-88
2022/11/05 05:46:30;;;;;;;8.57;2.33;;;;;;;13.73;100.00;98032.66;6091446;23;20109;-91
2022/11/05 05:48:55;;;;;;;6.75;2.10;;;;;;;13.57;100.00;98031.44;6091268;23;20044;-89
2022/11/05 05:51:21;;;;;;;13.27;2.70;;;;;;;12.60;100.00;98043.13;6089988;23;20475;-88
2022/11/05 05:53:46;;;;;;;10.60;2.55;;;;;;;13.71;100.00;98031.88;6089052;23;20060;-88
2022/11/05 05:56:13;;;;;;;8.23;2.25;;;;;;;13.79;100.00;98042.06;6091156;23;20455;-89
2022/11/05 05:58:39;;;;;;;7.68;2.10;;;;;;;14.48;100.00;98026.53;6090095;23;20010;-88
2022/11/05 06:01:08;;;;;;;8.93;2.00;;;;;;;13.84;100.00;98034.94;6117788;23;20021;-88
2022/11/05 06:03:34;;;;;;;8.82;2.10;;;;;;;14.04;100.00;98023.75;6088835;23;20183;-88
2022/11/05 06:06:02;;;;;;;7.32;2.10;;;;;;;14.16;100.00;98025.94;6116086;23;20357;-88
2022/11/05 06:08:28;;;;;;;8.68;2.45;;;;;;;14.08;100.00;98012.22;6116859;23;20145;-88
2022/11/05 06:10:53;;;;;;;7.95;2.15;;;;;;;14.57;100.00;98012.25;6092125;23;20453;-88
2022/11/05 06:13:19;;;;;;;8.98;2.22;;;;;;;13.78;100.00;98012.41;6092333;23;20025;-89
2022/11/05 06:15:44;;;;;;;12.05;2.63;;;;;;;13.54;100.00;98023.69;6092051;23;20648;-88
2022/11/05 06:18:09;;;;;;;7.90;2.30;;;;;;;13.87;100.00;98011.22;6090218;23;20033;-88
2022/11/05 06:20:35;;;;;;;12.40;3.00;;;;;;;14.66;100.00;97998.78;6091254;23;20010;-88
2022/11/05 06:23:00;;;;;;;8.40;2.50;;;;;;;14.64;100.00;98003.25;6091316;23;20005;-88
2022/11/05 06:25:25;;;;;;;10.35;2.55;;;;;;;14.36;100.00;98002.53;6090167;23;20013;-88
2022/11/05 06:27:52;;;;;;;10.30;2.80;;;;;;;13.99;100.00;98007.34;6091828;23;20012;-88
2022/11/05 06:30:19;;;;;;;16.33;3.95;;;;;;;13.91;100.00;98004.13;6092028;23;20076;-87
2022/11/05 06:32:45;;;;;;;34.95;4.97;;;;;;;13.12;100.00;98004.91;6091512;23;20515;-89
2022/11/05 06:35:10;;;;;;;11.68;3.80;;;;;;;12.95;100.00;98001.97;6090949;23;20116;-88
2022/11/05 06:37:36;;;;;;;9.25;3.35;;;;;;;13.20;100.00;97985.50;6091938;23;20045;-89
2022/11/05 06:40:01;;;;;;;11.07;3.95;;;;;;;13.45;100.00;97989.03;6117712;23;20101;-88
2022/11/05 06:42:26;;;;;;;13.70;3.83;;;;;;;13.07;100.00;97987.63;6092859;23;20363;-89
2022/11/05 06:44:52;;;;;;;11.50;3.88;;;;;;;12.60;100.00;97994.25;6118075;23;20384;-89
2022/11/05 06:47:18;;;;;;;12.90;4.38;;;;;;;13.17;100.00;97996.91;6118426;23;20016;-89
2022/11/05 06:49:44;;;;;;;11.93;4.25;;;;;;;12.61;100.00;97993.38;6090211;23;20020;-90
2022/11/05 06:52:11;;;;;;;15.80;4.30;;;;;;;12.62;100.00;98005.56;6119069;23;20348;-89
2022/11/05 06:54:36;;;;;;;12.98;4.45;;;;;;;13.68;100.00;97987.44;6092016;23;20033;-89
2022/11/05 06:57:03;;;;;;;12.05;4.32;;;;;;;13.54;100.00;97981.78;6114827;23;20017;-89
2022/11/05 06:59:28;;;;;;;12.52;4.57;;;;;;;13.69;100.00;97983.88;6115363;23;20014;-90
2022/11/05 07:01:54;;;;;;;13.27;4.50;;;;;;;14.31;100.00;97969.47;6089189;23;20355;-88
2022/11/05 07:04:19;;;;;;;11.20;4.28;;;;;;;13.91;100.00;97977.91;6088592;23;20040;-89
2022/11/05 07:06:45;;;;;;;12.10;4.32;;;;;;;13.84;100.00;97979.88;6090047;23;20770;-90
2022/11/05 07:09:10;;;;;;;15.07;5.10;;;;;;;13.87;100.00;97971.91;6117505;23;20112;-89
2022/11/05 07:11:35;;;;;;;13.52;4.38;;;;;;;13.00;100.00;97988.72;6090103;23;20479;-90
2022/11/05 07:14:01;;;;;;;9.65;3.92;;;;;;;13.42;100.00;97978.66;6091896;23;20010;-88
2022/11/05 07:16:26;;;;;;;14.30;4.55;;;;;;;13.58;100.00;97971.13;6091830;23;20014;-90
2022/11/05 07:18:51;;;;;;;11.73;4.65;;;;;;;13.25;100.00;97971.34;6114484;23;20009;-89
2022/11/05 07:21:18;;;;;;;11.13;4.50;;;;;;;13.49;100.00;97982.78;6115875;23;20014;-90
2022/11/05 07:23:44;;;;;;;13.55;4.90;;;;;;;13.29;100.00;97969.47;6091940;23;20425;-90
2022/11/05 07:26:09;;;;;;;16.55;5.05;;;;;;;13.76;100.00;97976.66;6117117;23;20014;-90
2022/11/05 07:28:35;;;;;;;10.98;4.72;;;;;;;14.47;100.00;97966.25;6089931;23;20439;-88
2022/11/05 07:31:00;;;;;;;12.85;4.88;;;;;;;14.17;100.00;97969.13;6088963;23;20052;-90
2022/11/05 07:33:25;;;;;;;12.07;5.15;;;;;;;14.56;100.00;97960.69;6090688;23;20356;-89
2022/11/05 07:35:51;;;;;;;14.88;4.78;;;;;;;14.15;100.00;97970.94;6085720;23;20025;-89
2022/11/05 07:38:17;;;;;;;11.70;4.63;;;;;;;14.10;100.00;97965.84;6088299;23;20353;-88
2022/11/05 07:40:43;;;;;;;12.48;4.55;;;;;;;14.89;100.00;97946.31;6112626;23;20069;-89
2022/11/05 07:43:08;;;;;;;9.80;4.43;;;;;;;13.23;100.00;97965.28;6116593;23;20017;-88
2022/11/05 07:45:34;;;;;;;14.15;4.97;;;;;;;12.75;100.00;97969.41;6117318;23;20010;-89
2022/11/05 07:48:01;;;;;;;14.18;4.90;;;;;;;13.19;100.00;97962.81;6088119;23;20092;-89
2022/11/05 07:50:29;;;;;;;10.75;4.28;;;;;;;13.53;100.00;97954.75;6090468;23;20017;-88
2022/11/05 07:53:06;;;;;;;11.95;4.40;;;;;;;13.80;100.00;97949.44;6089921;23;20029;-88
2022/11/05 07:55:33;;;;;;;10.52;4.25;;;;;;;15.21;100.00;97931.88;6091085;23;20100;-89
2022/11/05 07:57:58;;;;;;;11.25;4.22;;;;;;;15.45;100.00;97923.91;6089128;23;20010;-89
2022/11/05 08:00:25;;;;;;;12.98;4.78;;;;;;;14.76;100.00;97917.94;6090055;23;20339;-90
2022/11/05 08:02:56;;;;;;;11.07;4.38;;;;;;;13.24;100.00;97939.97;6115500;23;20135;-89
2022/11/05 08:05:22;;;;;;;16.13;4.68;;;;;;;12.98;100.00;97945.16;6086657;23;20018;-89
2022/11/05 08:07:47;;;;;;;14.32;4.57;;;;;;;13.46;100.00;97935.75;6090369;23;20033;-89
2022/11/05 08:10:13;;;;;;;16.50;4.70;;;;;;;13.47;100.00;97940.09;6114197;23;20036;-89
2022/11/05 08:12:38;;;;;;;17.42;4.60;;;;;;;12.92;100.00;97954.94;6088750;23;20014;-90
2022/11/05 08:15:04;;;;;;;11.93;4.45;;;;;;;13.22;100.00;97947.00;6089967;23;20069;-92
2022/11/05 08:17:30;;;;;;;15.93;4.80;;;;;;;13.08;100.00;97950.94;6089236;23;20608;-89
2022/11/05 08:19:55;;;;;;;13.32;4.68;;;;;;;12.81;100.00;97947.44;6086222;23;20064;-88
2022/11/05 08:22:21;;;;;;;13.98;4.65;;;;;;;13.36;100.00;97949.19;6089255;23;20029;-89
2022/11/05 08:24:46;;;;;;;13.43;4.38;;;;;;;12.80;100.00;97951.81;6088827;23;20109;-89
2022/11/05 08:27:12;;;;;;;13.43;4.95;;;;;;;13.32;100.00;97937.97;6114956;23;20220;-90
2022/11/05 08:29:37;;;;;;;10.68;4.45;;;;;;;13.65;100.00;97925.50;6091077;23;20022;-89
2022/11/05 08:32:02;;;;;;;11.68;4.18;;;;;;;14.61;100.00;97914.13;6117142;23;20044;-89
2022/11/05 08:34:28;;;;;;;11.63;4.35;;;;;;;14.68;100.00;97901.63;6091542;23;20009;-89
2022/11/05 08:36:53;;;;;;;10.50;4.40;;;;;;;15.57;100.00;97899.72;6092574;23;20486;-89
2022/11/05 08:39:18;;;;;;;10.40;4.00;;;;;;;14.72;100.00;97900.59;6117653;23;20029;-89
2022/11/05 08:41:45;;;;;;;12.98;4.15;;;;;;;14.45;100.00;97894.66;6090913;23;20021;-88
2022/11/05 08:44:11;;;;;;;13.02;4.05;;;;;;;15.55;100.00;97883.19;6116280;23;20048;-89
2022/11/05 08:46:36;;;;;;;13.23;4.40;;;;;;;15.74;100.00;97869.22;6087637;23;20042;-88
2022/11/05 08:49:03;;;;;;;12.32;4.55;;;;;;;14.37;100.00;97892.31;6090817;23;20025;-89
2022/11/05 08:51:29;;;;;;;11.35;4.72;;;;;;;14.82;100.00;97893.22;6091016;23;20013;-89
2022/11/05 08:53:54;;;;;;;13.85;4.57;;;;;;;14.86;100.00;97889.53;6091322;23;20068;-88
2022/11/05 08:56:20;;;;;;;10.85;4.85;;;;;;;14.95;100.00;97883.09;6092048;23;20006;-89
2022/11/05 08:58:45;;;;;;;14.85;5.05;;;;;;;14.32;100.00;97886.38;6086077;23;20100;-92
2022/11/05 09:01:13;;;;;;;12.68;5.10;;;;;;;15.42;100.00;97877.63;6118641;23;20432;-92
2022/11/05 09:03:38;;;;;;;12.98;4.65;;;;;;;14.66;100.00;97872.00;6091789;23;20030;-90
2022/11/05 09:06:04;;;;;;;12.15;5.32;;;;;;;14.95;100.00;97870.81;6091278;23;20359;-90
2022/11/05 09:08:29;;;;;;;12.65;5.35;;;;;;;14.68;100.00;97872.75;6092064;23;20519;-90
2022/11/05 09:10:55;;;;;;;10.43;4.85;;;;;;;14.27;100.00;97883.94;6089939;23;20472;-91
2022/11/05 09:13:21;;;;;;;15.80;5.30;;;;;;;15.07;100.00;97868.59;6089376;23;20014;-92
2022/11/05 09:15:48;;;;;;;12.52;5.57;;;;;;;15.14;100.00;97849.91;6089409;23;20018;-90
2022/11/05 09:18:15;;;;;;;13.23;5.30;;;;;;;15.06;100.00;97853.75;6088656;23;20006;-93
2022/11/05 09:20:41;;;;;;;13.02;5.10;;;;;;;15.58;100.00;97841.00;6090380;23;20135;-90
2022/11/05 09:23:07;;;;;;;10.55;4.60;;;;;;;15.02;100.00;97835.50;6117028;23;20021;-90
2022/11/05 09:25:33;;;;;;;11.77;5.03;;;;;;;14.71;100.00;97838.53;6090923;23;20045;-90
2022/11/05 09:28:13;;;;;;;11.68;5.03;;;;;;;14.79;100.00;97839.06;6115153;23;20005;-90
2022/11/05 09:30:49;;;;;;;13.25;4.55;;;;;;;15.14;100.00;97826.25;6089864;23;20022;-90
2022/11/05 09:33:17;;;;;;;15.27;5.13;;;;;;;15.59;100.00;97818.19;6114392;23;20009;-91
2022/11/05 09:35:42;;;;;;;14.48;5.22;;;;;;;15.42;100.00;97814.56;6089819;23;20085;-91
2022/11/05 09:38:08;;;;;;;16.27;5.18;;;;;;;15.09;100.00;97811.63;6114464;23;20092;-90
2022/11/05 09:40:48;;;;;;;12.75;4.32;;;;;;;15.04;100.00;97817.03;6115236;23;20010;-90
2022/11/05 09:43:19;;;;;;;12.48;5.28;;;;;;;14.61;100.00;97822.28;6089339;23;20020;-89
2022/11/05 09:45:48;;;;;;;10.88;4.38;;;;;;;14.95;100.00;97831.41;6087797;23;20057;-88
2022/11/05 09:48:17;;;;;;;12.77;4.57;;;;;;;14.84;100.00;97839.72;6086034;23;20121;-89
2022/11/05 09:50:45;;;;;;;11.65;4.43;;;;;;;14.68;100.00;97839.53;6087900;23;20020;-88
2022/11/05 09:53:16;;;;;;;13.07;4.43;;;;;;;15.01;100.00;97841.66;6090047;23;20018;-89
2022/11/05 09:55:46;;;;;;;11.98;5.00;;;;;;;15.56;100.00;97826.22;6089623;23;20014;-90
2022/11/05 09:58:19;;;;;;;10.70;4.80;;;;;;;15.76;100.00;97818.28;6088303;23;20013;-88
2022/11/05 10:00:49;;;;;;;11.35;4.65;;;;;;;16.00;100.00;97799.72;6114054;23;20704;-90
2022/11/05 10:03:21;;;;;;;12.45;4.65;;;;;;;16.23;100.00;97795.16;6114750;23;20044;-89
2022/11/05 10:05:48;;;;;;;10.52;4.75;;;;;;;15.28;100.00;97788.03;6114502;23;20112;-89
2022/11/05 10:08:17;;;;;;;11.57;4.20;;;;;;;15.19;100.00;97799.78;6087943;23;20014;-90
2022/11/05 10:11:01;;;;;;;11.07;4.68;;;;;;;15.04;100.00;97803.06;6116390;23;20344;-91
2022/11/05 10:13:35;;;;;;;10.32;4.15;;;;;;;15.77;100.00;97782.34;6089033;23;20014;-90
2022/11/05 10:16:20;;;;;;;10.82;4.60;;;;;;;15.44;100.00;97790.84;6087404;23;20097;-89
2022/11/05 10:18:52;;;;;;;12.30;4.30;;;;;;;15.20;100.00;97804.13;6087501;23;20017;-90
2022/11/05 10:21:19;;;;;;;9.63;3.88;;;;;;;15.81;100.00;97805.84;6089688;23;20017;-90
2022/11/05 10:23:46;;;;;;;11.65;4.03;;;;;;;15.34;100.00;97791.25;6088207;23;20021;-90
2022/11/05 10:26:25;;;;;;;9.38;3.80;;;;;;;15.86;100.00;97774.91;6116157;23;20057;-92
2022/11/05 10:28:51;;;;;;;8.77;3.03;;;;;;;15.88;100.00;97764.34;6115651;23;20017;-88
2022/11/05 10:31:20;;;;;;;8.30;3.15;;;;;;;16.40;100.00;97761.00;6087852;23;20100;-89
2022/11/05 10:33:46;;;;;;;11.82;3.47;;;;;;;16.25;100.00;97757.31;6088319;23;20803;-90
2022/11/05 10:36:25;;;;;;;7.75;3.08;;;;;;;15.64;100.00;97761.91;6088128;23;20005;-91
2022/11/05 10:38:51;;;;;;;9.10;2.90;;;;;;;16.47;100.00;97743.97;6088518;23;20041;-90
2022/11/05 10:41:47;;;;;;;8.57;3.20;;;;;;;15.01;100.00;97749.75;6089400;23;20383;-90
2022/11/05 10:44:33;;;;;;;7.60;3.30;;;;;;;15.91;100.00;97745.78;6088919;23;20026;-91
2022/11/05 10:47:27;;;;;;;9.30;3.42;;;;;;;16.18;100.00;97743.59;6115294;23;20095;-89
2022/11/05 10:49:59;;;;;;;8.00;3.30;;;;;;;15.58;100.00;97746.38;6115122;23;20002;-90
2022/11/05 10:52:33;;;;;;;10.00;3.03;;;;;;;16.33;100.00;97741.19;6088489;23;20022;-90
2022/11/05 10:55:25;;;;;;;8.25;3.17;;;;;;;16.45;100.00;97734.44;6115687;23;20014;-90
2022/11/05 10:57:51;;;;;;;8.70;3.50;;;;;;;16.62;100.00;97723.94;6091572;23;20065;-89
2022/11/05 11:00:18;;;;;;;10.48;3.60;;;;;;;15.68;100.00;97729.28;6085926;23;20026;-89
2022/11/05 11:02:54;;;;;;;11.25;3.72;;;;;;;17.04;100.00;97708.69;6086588;23;20032;-90
2022/11/05 11:05:30;;;;;;;10.73;3.75;;;;;;;16.71;100.00;97702.44;6115456;23;20010;-89
2022/11/05 11:08:00;;;;;;;14.27;5.78;;;;;;;16.01;100.00;97704.13;6088915;23;20208;-90
2022/11/05 11:10:27;;;;;;;16.10;6.22;;;;;;;16.05;100.00;97703.06;6115305;23;20128;-90
2022/11/05 11:12:54;;;;;;;18.25;6.93;;;;;;;15.67;100.00;97698.66;6113336;23;20116;-90
2022/11/05 11:15:19;;;;;;;24.40;8.00;;;;;;;16.56;100.00;97695.28;6088543;23;20069;-91
2022/11/05 11:17:46;;;;;;;26.48;9.45;;;;;;;16.99;100.00;97689.63;6115761;23;20013;-90
2022/11/05 11:20:26;;;;;;;32.35;11.52;;;;;;;16.88;100.00;97685.78;6089024;23;20764;-89
2022/11/05 11:23:03;;;;;;;27.25;10.13;;;;;;;16.99;100.00;97694.91;6088371;23;20039;-90
2022/11/05 11:25:59;;;;;;;28.75;10.98;;;;;;;16.41;100.00;97717.97;6115159;23;20384;-90
2022/11/05 11:28:32;;;;;;;28.55;10.70;;;;;;;17.00;100.00;97702.72;6088128;23;20017;-90
2022/11/05 11:31:10;;;;;;;27.35;11.60;;;;;;;16.87;100.00;97691.09;6113923;23;20010;-91
2022/11/05 11:33:37;;;;;;;30.35;10.95;;;;;;;15.50;100.00;97695.97;6114169;23;20084;-91
2022/11/05 11:36:04;;;;;;;26.67;10.70;;;;;;;16.27;100.00;97692.34;6115366;23;20061;-90
2022/11/05 11:38:33;;;;;;;28.33;10.95;;;;;;;16.85;100.00;97687.69;6115459;23;20001;-89
2022/11/05 11:41:25;;;;;;;25.65;9.55;;;;;;;16.44;100.00;97677.50;6088728;23;20865;-90
2022/11/05 11:43:58;;;;;;;24.25;8.65;;;;;;;16.28;100.00;97677.41;6087066;23;20041;-91
2022/11/05 11:46:23;;;;;;;25.77;9.30;;;;;;;16.76;100.00;97680.25;6113285;23;20006;-90
2022/11/05 11:48:50;;;;;;;20.83;8.25;;;;;;;16.40;100.00;97682.06;6086549;23;20145;-89
2022/11/05 11:51:15;;;;;;;25.45;8.35;;;;;;;16.62;100.00;97676.56;6114268;23;20018;-89
2022/11/05 11:53:40;;;;;;;24.23;7.57;;;;;;;17.45;100.00;97659.97;6089664;23;20544;-89
2022/11/05 11:56:12;;;;;;;20.45;6.97;;;;;;;16.83;100.00;97671.97;6089048;23;20014;-89
2022/11/05 11:58:50;;;;;;;16.40;6.28;;;;;;;15.79;100.00;97668.34;6089741;23;20101;-89
2022/11/05 12:01:18;;;;;;;16.58;6.25;;;;;;;16.26;100.00;97674.84;6090161;23;20024;-90
2022/11/05 12:03:50;;;;;;;13.68;4.75;;;;;;;16.34;100.00;97666.59;6090132;23;20807;-89
2022/11/05 12:06:38;;;;;;;13.85;5.25;;;;;;;15.89;100.00;97663.50;6086655;23;20022;-89
2022/11/05 12:09:16;;;;;;;14.95;4.95;;;;;;;14.98;100.00;97670.28;6090010;23;20436;-89
2022/11/05 12:11:54;;;;;;;12.52;4.40;;;;;;;15.58;100.00;97672.81;6090711;23;20041;-90